createdAt,value
2019-04-03T00:02:27.430Z,98908.23
2019-04-03T00:04:58.942Z,98908.23
2019-04-03T00:07:30.863Z,98899.16
2019-04-03T00:10:02.409Z,98906.92
2019-04-03T00:12:34.347Z,98916.59
2019-04-03T00:15:06.935Z,98916.59
2019-04-03T00:17:38.646Z,98905.75
2019-04-03T00:20:10.564Z,98905.75
2019-04-03T00:22:42.292Z,98909.15
2019-04-03T00:25:13.969Z,98913.40
2019-04-03T00:27:45.543Z,98915.05
2019-04-03T00:30:17.389Z,98919.59
2019-04-03T00:32:49.133Z,98921.98
2019-04-03T00:35:23.151Z,98921.98
2019-04-03T00:37:54.125Z,98926.42
2019-04-03T00:40:25.950Z,98932.09
2019-04-03T00:42:58.706Z,98931.83
2019-04-03T00:45:30.557Z,98931.83
2019-04-03T00:48:02.598Z,98932.80
2019-04-03T00:50:34.296Z,98932.80
2019-04-03T00:53:05.847Z,98949.36
2019-04-03T00:55:37.732Z,98949.36
2019-04-03T00:58:37.531Z,98954.36
2019-04-03T01:01:11.598Z,98952.46
2019-04-03T01:03:44.112Z,98952.46
2019-04-03T01:06:15.911Z,98956.05
2019-04-03T01:08:47.546Z,98959.64
2019-04-03T01:11:19.638Z,98959.64
2019-04-03T01:13:52.274Z,98969.80
2019-04-03T01:16:24.184Z,98979.56
2019-04-03T01:18:55.934Z,98979.56
2019-04-03T01:21:28.126Z,98979.98
2019-04-03T01:23:59.652Z,98979.98
2019-04-03T01:26:31.619Z,98984.09
2019-04-03T01:29:03.621Z,98984.09
2019-04-03T01:31:35.267Z,98989.11
2019-04-03T01:34:06.814Z,98959.99
2019-04-03T01:36:38.618Z,98996.78
2019-04-03T01:39:10.275Z,99001.10
2019-04-03T01:41:41.908Z,99010.16
2019-04-03T01:44:14.053Z,99010.16
2019-04-03T01:46:45.872Z,99016.29
2019-04-03T01:49:17.481Z,99007.66
2019-04-03T01:51:49.087Z,99015.45
2019-04-03T01:54:20.944Z,99012.97
2019-04-03T01:56:52.364Z,99012.97
2019-04-03T01:59:24.362Z,99015.19
2019-04-03T02:01:57.384Z,99020.11
2019-04-03T02:04:29.172Z,99022.94
2019-04-03T02:07:00.945Z,99021.28
2019-04-03T02:09:32.593Z,99021.28
2019-04-03T02:12:04.744Z,99021.95
2019-04-03T02:14:36.709Z,99031.42
2019-04-03T02:17:08.421Z,99031.42
2019-04-03T02:19:40.451Z,99037.80
2019-04-03T02:22:11.972Z,99030.21
2019-04-03T02:24:43.624Z,99042.48
2019-04-03T02:27:15.287Z,99039.33
2019-04-03T02:29:47.105Z,99040.06
2019-04-03T02:32:18.879Z,99046.65
2019-04-03T02:34:50.712Z,99045.51
2019-04-03T02:37:22.243Z,99048.81
2019-04-03T02:39:54.082Z,99048.81
2019-04-03T02:42:25.940Z,99054.27
2019-04-03T02:44:58.355Z,99054.27
2019-04-03T02:47:32.934Z,99063.38
2019-04-03T02:50:03.775Z,99070.19
2019-04-03T02:52:35.568Z,99062.16
2019-04-03T02:55:08.429Z,99070.80
2019-04-03T02:57:40.966Z,99070.80
2019-04-03T03:00:12.699Z,99077.72
2019-04-03T03:02:45.751Z,99078.77
2019-04-03T03:05:18.056Z,99083.67
2019-04-03T03:07:49.825Z,99084.17
2019-04-03T03:10:21.601Z,99087.17
2019-04-03T03:12:53.289Z,99091.44
2019-04-03T03:15:25.775Z,99096.66
2019-04-03T03:17:58.292Z,99099.63
2019-04-03T03:20:31.404Z,99096.80
2019-04-03T03:23:03.705Z,99098.14
2019-04-03T03:25:35.900Z,99110.16
2019-04-03T03:28:08.963Z,99109.16
2019-04-03T03:30:46.640Z,99116.31
2019-04-03T03:33:33.220Z,99112.18
2019-04-03T03:35:51.757Z,99119.69
2019-04-03T03:38:27.256Z,99122.19
2019-04-03T03:40:59.289Z,99122.19
2019-04-03T03:43:32.111Z,99120.38
2019-04-03T03:46:04.298Z,99125.70
2019-04-03T03:48:37.094Z,99123.20
2019-04-03T03:51:08.704Z,99122.09
2019-04-03T03:53:44.076Z,99132.41
2019-04-03T03:56:14.649Z,99123.45
2019-04-03T03:58:46.868Z,99139.72
2019-04-03T04:01:19.152Z,99139.72
2019-04-03T04:03:52.351Z,99137.22
2019-04-03T04:06:28.231Z,99133.74
2019-04-03T04:09:00.690Z,99123.30
2019-04-03T04:11:34.209Z,99130.27
2019-04-03T04:14:06.192Z,99147.80
2019-04-03T04:16:38.484Z,99147.80
2019-04-03T04:19:10.244Z,99147.95
2019-04-03T04:21:45.033Z,99153.13
2019-04-03T04:24:18.447Z,99153.13
2019-04-03T04:26:50.651Z,99154.81
2019-04-03T04:29:22.482Z,99153.77
2019-04-03T04:32:10.249Z,99153.77
2019-04-03T04:34:42.653Z,99153.87
2019-04-03T04:37:14.252Z,99149.00
2019-04-03T04:39:46.398Z,99149.89
2019-04-03T04:42:18.318Z,99147.09
2019-04-03T04:44:50.284Z,99150.47
2019-04-03T04:47:23.477Z,99148.59
2019-04-03T04:49:55.418Z,99149.20
2019-04-03T04:52:27.624Z,99149.20
2019-04-03T04:55:02.001Z,99147.60
2019-04-03T04:57:34.538Z,99148.06
2019-04-03T05:00:07.178Z,99148.27
2019-04-03T05:02:39.071Z,99148.27
